Time;durP1;ratioP1;P1;durP2;ratioP2;P2;SDS_P1;SDS_P2;PMS_P1;PMS_P2;Temp;Humidity;BMP_temperature;BMP_pressure;BME280_temperature;BME280_humidity;BME280_pressure;Samples;Min_cycle;Max_cycle;Signal;HPM_P1;HPM_P2
2022/02/05 00:01:55;;;;;;;0.55;0.55;;;8.90;99.20;;;;;;5062683;28;20454;-49
2022/02/05 00:04:22;;;;;;;2.78;0.90;;;8.90;99.20;;;;;;5061489;28;20083;-49
2022/02/05 00:06:52;;;;;;;1.55;0.77;;;8.90;99.20;;;;;;5062689;28;20041;-49
2022/02/05 00:42:39;;;;;;;1.08;0.63;;;8.90;99.20;;;;;;5059746;28;20112;-49
2022/02/05 00:44:31;;;;;;;0.60;0.60;;;8.90;99.10;;;;;;5068460;28;20045;-49
2022/02/05 00:46:57;;;;;;;0.80;0.80;;;8.90;99.20;;;;;;5061616;28;20121;-49
2022/02/05 00:49:23;;;;;;;0.65;0.65;;;8.90;99.20;;;;;;5063378;28;20074;-49
2022/02/05 00:51:54;;;;;;;1.00;0.40;;;8.90;99.20;;;;;;5061945;28;20501;-49
2022/02/05 00:54:23;;;;;;;1.83;0.95;;;8.90;99.20;;;;;;5059301;28;20032;-50
2022/02/05 00:57:07;;;;;;;0.80;0.60;;;8.90;99.20;;;;;;5059850;28;20112;-49
2022/02/05 00:59:32;;;;;;;1.27;0.93;;;8.90;99.10;;;;;;5062953;28;20021;-49
2022/02/05 01:01:58;;;;;;;1.45;1.00;;;8.90;99.10;;;;;;5060403;28;20031;-49
2022/02/05 01:04:23;;;;;;;0.90;0.60;;;8.90;99.10;;;;;;5058718;28;20538;-49
2022/02/05 01:06:49;;;;;;;0.65;0.65;;;8.90;99.10;;;;;;5062339;28;20347;-49
2022/02/05 01:09:25;;;;;;;1.35;0.65;;;8.90;99.10;;;;;;5059266;28;20033;-49
2022/02/05 01:11:51;;;;;;;1.48;1.02;;;8.90;99.10;;;;;;5058638;28;20017;-49
2022/02/05 01:14:21;;;;;;;1.02;0.68;;;8.80;99.10;;;;;;5063223;28;20025;-49
2022/02/05 01:22:27;;;;;;;1.60;1.05;;;8.90;99.00;;;;;;5088842;28;20547;-49
2022/02/05 01:24:54;;;;;;;1.20;0.60;;;8.90;99.10;;;;;;5084102;28;20426;-49
2022/02/05 01:27:42;;;;;;;1.23;0.85;;;8.80;99.00;;;;;;5088406;28;20028;-49
2022/02/05 01:30:20;;;;;;;1.00;0.80;;;8.80;99.00;;;;;;5089364;28;20032;-49
2022/02/05 01:32:57;;;;;;;0.70;0.70;;;8.80;99.00;;;;;;5088248;28;20020;-49
2022/02/05 01:57:44;;;;;;;1.08;0.80;;;8.80;98.90;;;;;;5060648;28;20090;-49
2022/02/05 02:05:30;;;;;;;0.63;0.63;;;8.70;98.80;;;;;;5058478;28;20040;-49
2022/02/05 02:13:12;;;;;;;1.65;1.02;;;8.70;98.80;;;;;;5059491;28;20103;-49
2022/02/05 02:15:54;;;;;;;2.05;0.90;;;8.70;98.80;;;;;;5060691;28;20041;-49
2022/02/05 02:26:16;;;;;;;1.65;0.73;;;8.70;98.70;;;;;;5056626;28;20032;-49
2022/02/05 02:31:13;;;;;;;1.55;0.65;;;8.70;98.70;;;;;;5060048;28;20353;-49
2022/02/05 02:33:44;;;;;;;0.57;0.57;;;8.70;98.70;;;;;;5059542;28;20025;-49
2022/02/05 02:36:51;;;;;;;0.60;0.60;;;8.60;99.00;;;;;;5059820;28;20053;-49
2022/02/05 02:39:12;;;;;;;0.88;0.73;;;8.60;98.60;;;;;;5062828;28;20064;-49
2022/02/05 02:41:52;;;;;;;0.70;0.70;;;8.60;98.60;;;;;;5058646;28;20103;-49
2022/02/05 02:44:18;;;;;;;2.97;0.57;;;8.60;98.60;;;;;;5061714;28;20036;-49
2022/02/05 02:46:43;;;;;;;1.23;0.60;;;8.60;98.60;;;;;;5058990;28;20029;-49
2022/02/05 02:49:14;;;;;;;0.50;0.50;;;8.60;98.60;;;;;;5060853;28;20036;-49
2022/02/05 02:59:49;;;;;;;1.35;1.02;;;8.60;98.50;;;;;;5060404;28;20028;-49
2022/02/05 03:02:18;;;;;;;7.65;1.13;;;8.60;98.50;;;;;;5058846;28;20043;-49
2022/02/05 03:04:44;;;;;;;0.75;0.75;;;8.50;98.40;;;;;;5055329;28;20065;-49
2022/02/05 03:07:09;;;;;;;0.70;0.60;;;8.50;98.40;;;;;;5062217;28;20410;-49
2022/02/05 03:09:36;;;;;;;1.70;0.80;;;8.50;98.50;;;;;;5060290;28;20438;-49
2022/02/05 03:12:02;;;;;;;4.13;0.98;;;8.60;98.40;;;;;;5054334;28;20025;-49
2022/02/05 03:14:27;;;;;;;1.27;1.00;;;8.50;98.40;;;;;;5061385;28;20023;-49
2022/02/05 03:17:02;;;;;;;0.52;0.52;;;8.50;98.40;;;;;;5061163;28;20074;-49
2022/02/05 03:19:28;;;;;;;0.80;0.60;;;8.50;98.40;;;;;;5059402;28;20025;-49
2022/02/05 03:21:53;;;;;;;2.25;0.63;;;8.50;98.40;;;;;;5058955;28;20370;-49
2022/02/05 03:24:19;;;;;;;3.17;0.90;;;8.50;98.40;;;;;;5061010;28;20373;-50
2022/02/05 03:26:44;;;;;;;1.08;0.60;;;8.50;98.30;;;;;;5054940;28;20025;-49
2022/02/05 03:29:12;;;;;;;1.30;0.95;;;8.40;98.30;;;;;;5059806;28;20059;-49
2022/02/05 03:31:38;;;;;;;1.15;0.90;;;8.50;98.30;;;;;;5062073;28;20111;-49
2022/02/05 03:34:05;;;;;;;2.08;0.90;;;8.50;98.30;;;;;;5063932;28;20438;-49
2022/02/05 03:36:32;;;;;;;0.77;0.70;;;8.40;98.30;;;;;;5062205;28;20116;-50
2022/02/05 03:38:59;;;;;;;0.73;0.73;;;8.40;98.30;;;;;;5064853;28;20194;-49
2022/02/05 03:41:25;;;;;;;1.40;0.93;;;8.40;98.30;;;;;;5056683;28;20471;-49
2022/02/05 03:43:50;;;;;;;1.70;0.57;;;8.40;98.30;;;;;;5064843;28;20043;-49
2022/02/05 03:46:16;;;;;;;1.00;0.80;;;8.40;98.30;;;;;;5063146;28;20024;-49
2022/02/05 03:48:42;;;;;;;0.40;0.40;;;8.40;98.30;;;;;;5062657;28;20048;-49
2022/02/05 03:51:07;;;;;;;1.75;0.88;;;8.40;98.30;;;;;;5064552;28;20024;-49
2022/02/05 03:53:33;;;;;;;1.80;1.02;;;8.40;98.30;;;;;;5062446;28;20028;-49
2022/02/05 03:55:58;;;;;;;1.13;0.93;;;8.40;98.20;;;;;;5059583;28;20029;-49
2022/02/05 03:58:24;;;;;;;0.85;0.55;;;8.40;98.20;;;;;;5053603;28;20039;-49
2022/02/05 04:00:50;;;;;;;2.38;0.60;;;8.40;98.20;;;;;;5063354;28;20361;-49
2022/02/05 04:03:15;;;;;;;1.08;0.60;;;8.40;98.20;;;;;;5060476;28;20037;-49
2022/02/05 04:05:41;;;;;;;1.27;1.02;;;8.40;98.30;;;;;;5061281;28;20028;-49
2022/02/05 04:08:09;;;;;;;3.17;0.70;;;8.30;98.20;;;;;;5062749;28;20079;-49
2022/02/05 04:10:44;;;;;;;0.85;0.85;;;8.40;98.20;;;;;;5063740;28;20028;-49
2022/02/05 04:18:45;;;;;;;0.88;0.60;;;8.30;98.20;;;;;;5064356;28;20120;-49
2022/02/05 04:21:11;;;;;;;5.30;1.00;;;8.30;98.20;;;;;;5062650;28;20108;-49
2022/02/05 04:23:38;;;;;;;1.10;0.80;;;8.30;98.20;;;;;;5060477;28;20037;-49
2022/02/05 04:26:03;;;;;;;1.85;0.60;;;8.30;98.20;;;;;;5059464;28;20388;-48
2022/02/05 04:28:29;;;;;;;0.52;0.52;;;8.30;98.20;;;;;;5060214;28;20175;-49
2022/02/05 04:30:54;;;;;;;2.65;0.90;;;8.30;98.20;;;;;;5064056;28;20020;-48
2022/02/05 04:33:20;;;;;;;0.70;0.70;;;8.30;98.20;;;;;;5060603;28;20062;-49
2022/02/05 04:35:46;;;;;;;3.30;1.42;;;8.30;98.20;;;;;;5062376;28;20025;-49
2022/02/05 04:38:12;;;;;;;2.80;1.17;;;8.30;98.20;;;;;;5061897;28;20052;-49
2022/02/05 04:40:45;;;;;;;3.25;0.75;;;8.30;98.20;;;;;;5062086;28;20040;-49
2022/02/05 04:43:22;;;;;;;0.65;0.65;;;8.30;98.20;;;;;;5058767;28;20040;-49
2022/02/05 04:46:55;;;;;;;1.30;0.90;;;8.20;98.10;;;;;;5063941;28;20361;-49
2022/02/05 04:54:00;;;;;;;1.63;1.40;;;8.20;98.10;;;;;;5060408;28;20022;-49
2022/02/05 04:56:37;;;;;;;0.98;0.77;;;8.20;98.10;;;;;;5059276;28;20029;-49
2022/02/05 05:07:51;;;;;;;1.10;0.93;;;8.20;98.10;;;;;;5060905;28;20043;-49
2022/02/05 05:19:58;;;;;;;1.30;1.00;;;8.20;98.00;;;;;;5063290;28;20034;-49
2022/02/05 05:22:24;;;;;;;1.30;1.10;;;8.20;98.00;;;;;;5061109;28;20103;-49
2022/02/05 05:24:49;;;;;;;0.68;0.63;;;8.20;98.00;;;;;;5060300;28;20055;-49
2022/02/05 05:27:15;;;;;;;3.05;0.88;;;8.20;98.00;;;;;;5056993;28;20025;-49
2022/02/05 05:29:41;;;;;;;2.45;1.00;;;8.20;98.00;;;;;;5061751;28;20065;-49
2022/02/05 05:32:07;;;;;;;3.85;1.00;;;8.20;98.00;;;;;;5059861;28;20041;-49
2022/02/05 05:34:33;;;;;;;1.67;0.85;;;8.20;98.00;;;;;;5062477;28;20086;-48
2022/02/05 05:37:00;;;;;;;2.78;1.13;;;8.10;98.00;;;;;;5062206;28;20024;-49
2022/02/05 05:39:27;;;;;;;5.20;1.33;;;8.20;98.00;;;;;;5060126;28;20033;-49
2022/02/05 05:41:52;;;;;;;0.65;0.65;;;8.10;98.00;;;;;;5056795;28;20041;-49
2022/02/05 05:44:56;;;;;;;1.20;0.88;;;8.10;97.90;;;;;;5058700;28;20045;-48
2022/02/05 05:50:01;;;;;;;1.75;1.05;;;8.10;97.90;;;;;;5059595;28;20259;-49
2022/02/05 05:52:27;;;;;;;2.05;1.05;;;8.10;97.90;;;;;;5059637;28;20021;-48
2022/02/05 05:54:53;;;;;;;2.20;1.08;;;8.10;97.90;;;;;;5059888;28;20336;-48
2022/02/05 05:57:19;;;;;;;1.35;1.08;;;8.10;97.90;;;;;;5056944;28;20071;-48
2022/02/05 05:59:45;;;;;;;7.90;1.85;;;8.10;97.90;;;;;;5061972;28;20028;-48
2022/02/05 06:02:10;;;;;;;2.22;1.20;;;8.10;97.90;;;;;;5059815;28;20024;-48
2022/02/05 06:04:37;;;;;;;5.15;1.90;;;8.10;97.90;;;;;;5055998;28;20498;-48
2022/02/05 06:07:03;;;;;;;4.68;2.13;;;8.10;97.90;;;;;;5062502;28;20051;-48
2022/02/05 06:09:28;;;;;;;3.90;1.67;;;8.10;97.90;;;;;;5060312;28;20427;-48
2022/02/05 06:11:54;;;;;;;3.13;1.33;;;8.10;97.90;;;;;;5058385;28;20056;-49
2022/02/05 06:14:23;;;;;;;1.90;1.10;;;8.10;97.80;;;;;;5058483;28;20043;-49
2022/02/05 06:16:54;;;;;;;3.17;1.20;;;8.10;97.80;;;;;;5061207;28;20246;-48
2022/02/05 06:19:20;;;;;;;2.40;1.55;;;8.10;97.80;;;;;;5059067;28;20036;-49
2022/02/05 06:21:47;;;;;;;1.58;1.10;;;8.10;97.80;;;;;;5060314;28;20027;-48
2022/02/05 06:24:12;;;;;;;2.47;0.95;;;8.00;97.80;;;;;;5062043;28;20029;-49
2022/02/05 06:26:38;;;;;;;1.10;1.00;;;8.10;97.80;;;;;;5059326;28;20340;-49
2022/02/05 06:29:04;;;;;;;1.70;1.00;;;8.00;97.80;;;;;;5059337;28;20041;-48
2022/02/05 06:31:30;;;;;;;4.50;1.48;;;8.10;97.80;;;;;;5058285;28;20437;-48
2022/02/05 06:33:55;;;;;;;2.75;1.40;;;8.10;97.80;;;;;;5061017;28;20491;-48
2022/02/05 06:36:21;;;;;;;2.13;1.10;;;8.10;97.80;;;;;;5061354;28;20059;-49
2022/02/05 06:38:47;;;;;;;2.83;1.08;;;8.00;97.70;;;;;;5059781;28;20292;-49
2022/02/05 06:41:13;;;;;;;2.35;1.15;;;8.10;97.70;;;;;;5060692;28;20017;-49
2022/02/05 06:43:38;;;;;;;2.83;1.30;;;8.00;97.70;;;;;;5055724;28;20031;-48
2022/02/05 06:46:04;;;;;;;7.28;1.30;;;8.00;97.70;;;;;;5061986;28;20025;-48
2022/02/05 06:48:30;;;;;;;2.70;1.60;;;8.00;97.70;;;;;;5060229;28;20043;-48
2022/02/05 06:50:55;;;;;;;3.63;1.05;;;8.00;97.70;;;;;;5059014;28;20057;-49
2022/02/05 06:53:21;;;;;;;1.65;1.02;;;8.00;97.70;;;;;;5058775;28;20028;-48
2022/02/05 06:55:47;;;;;;;2.00;1.30;;;8.00;97.70;;;;;;5060307;28;20510;-49
2022/02/05 06:58:12;;;;;;;1.98;1.30;;;8.00;97.70;;;;;;5053608;28;20037;-48
2022/02/05 07:00:38;;;;;;;1.35;0.90;;;8.00;97.70;;;;;;5061514;28;20036;-48
2022/02/05 07:03:04;;;;;;;5.18;1.70;;;8.00;97.70;;;;;;5059400;28;20043;-48
2022/02/05 07:05:30;;;;;;;2.17;1.30;;;8.00;97.60;;;;;;5054829;28;20048;-48
2022/02/05 07:07:56;;;;;;;3.45;1.75;;;8.00;97.70;;;;;;5064738;28;20029;-48
2022/02/05 07:10:22;;;;;;;3.83;1.83;;;8.00;97.60;;;;;;5065492;28;20050;-48
2022/02/05 07:13:11;;;;;;;11.73;3.85;;;8.00;97.70;;;;;;5058566;28;20347;-49
2022/02/05 07:15:42;;;;;;;12.98;2.35;;;8.00;97.60;;;;;;5062843;28;20551;-48
2022/02/05 07:23:50;;;;;;;2.15;1.10;;;8.00;97.70;;;;;;5083012;28;20043;-49
2022/02/05 07:29:18;;;;;;;3.65;1.85;;;8.00;97.60;;;;;;5086376;28;20507;-48
2022/02/05 07:31:44;;;;;;;2.67;1.08;;;8.00;97.60;;;;;;5081718;28;20020;-49
2022/02/05 07:34:11;;;;;;;1.52;1.10;;;8.00;97.60;;;;;;5082314;28;20036;-48
2022/02/05 07:36:37;;;;;;;3.22;1.88;;;8.00;97.60;;;;;;5081250;28;20020;-49
2022/02/05 07:39:06;;;;;;;2.88;1.40;;;8.00;97.50;;;;;;5079488;28;20202;-48
2022/02/05 07:41:32;;;;;;;6.13;2.00;;;8.00;97.50;;;;;;5080298;28;20036;-49
2022/02/05 07:43:58;;;;;;;2.53;1.77;;;8.00;97.50;;;;;;5081872;28;20031;-49
2022/02/05 07:46:24;;;;;;;2.03;1.25;;;8.00;97.50;;;;;;5079471;28;20087;-49
2022/02/05 07:48:50;;;;;;;2.50;1.20;;;8.00;97.50;;;;;;5079902;28;20028;-49
2022/02/05 07:51:16;;;;;;;2.92;1.45;;;8.00;97.50;;;;;;5084153;28;20059;-49
2022/02/05 07:53:41;;;;;;;2.63;1.20;;;8.00;97.50;;;;;;5086365;28;20062;-49
2022/02/05 07:56:07;;;;;;;5.25;1.70;;;8.00;97.50;;;;;;5082568;28;20085;-49
2022/02/05 07:58:34;;;;;;;1.63;1.00;;;8.00;97.50;;;;;;5079227;28;20031;-48
2022/02/05 08:01:01;;;;;;;1.65;1.38;;;8.00;97.40;;;;;;5059854;28;20052;-49
2022/02/05 08:03:27;;;;;;;1.33;1.00;;;8.00;97.50;;;;;;5063864;28;20139;-49
2022/02/05 08:05:52;;;;;;;1.48;1.30;;;8.00;97.50;;;;;;5058000;28;20060;-49
2022/02/05 08:08:22;;;;;;;1.60;1.08;;;8.00;97.50;;;;;;5063260;28;20021;-49
2022/02/05 08:10:55;;;;;;;4.22;1.52;;;8.00;97.50;;;;;;5064457;28;20032;-49
2022/02/05 08:13:22;;;;;;;3.20;1.45;;;8.00;97.40;;;;;;5059125;28;20378;-49
2022/02/05 08:15:53;;;;;;;4.32;1.15;;;8.00;97.50;;;;;;5061177;28;20021;-49
2022/02/05 08:18:19;;;;;;;5.03;1.38;;;8.00;97.50;;;;;;5061655;28;20029;-49
2022/02/05 08:20:44;;;;;;;1.60;0.85;;;8.10;97.50;;;;;;5064717;28;20032;-48
2022/02/05 08:23:10;;;;;;;4.22;1.30;;;8.00;97.50;;;;;;5061933;28;20117;-48
2022/02/05 08:25:35;;;;;;;1.08;0.95;;;8.10;97.40;;;;;;5063376;28;20017;-49
2022/02/05 08:28:01;;;;;;;1.20;1.10;;;8.10;97.50;;;;;;5062545;28;20028;-49
2022/02/05 08:30:27;;;;;;;12.65;1.55;;;8.10;97.20;;;;;;5060484;28;20029;-49
2022/02/05 08:32:53;;;;;;;0.90;0.90;;;8.10;97.50;;;;;;5062990;28;20028;-49
2022/02/05 08:35:19;;;;;;;1.55;0.93;;;8.10;97.20;;;;;;5061622;28;20100;-49
2022/02/05 08:37:47;;;;;;;3.25;1.23;;;8.20;97.30;;;;;;5063015;28;20035;-49
2022/02/05 08:40:14;;;;;;;1.83;0.77;;;8.20;97.50;;;;;;5064089;28;20025;-49
2022/02/05 08:42:39;;;;;;;2.33;1.40;;;8.20;97.40;;;;;;5060720;28;20028;-48
2022/02/05 08:45:06;;;;;;;1.65;0.90;;;8.20;97.30;;;;;;5056842;28;20350;-49
2022/02/05 08:47:31;;;;;;;1.13;0.88;;;8.20;97.40;;;;;;5063162;28;20107;-49
2022/02/05 08:49:57;;;;;;;2.22;1.23;;;8.20;97.30;;;;;;5060034;28;20108;-49
2022/02/05 08:52:24;;;;;;;2.47;0.95;;;8.30;97.60;;;;;;5060633;28;20048;-49
2022/02/05 08:54:49;;;;;;;2.17;0.98;;;8.30;97.50;;;;;;5061751;28;20021;-49
2022/02/05 08:57:15;;;;;;;0.85;0.75;;;8.30;97.70;;;;;;5059233;28;20036;-49
2022/02/05 08:59:55;;;;;;;2.72;1.40;;;8.40;97.50;;;;;;5058912;28;20104;-49
2022/02/05 09:02:35;;;;;;;4.07;1.60;;;8.40;97.60;;;;;;5059316;28;20104;-49
2022/02/05 09:05:47;;;;;;;1.88;1.58;;;8.40;98.00;;;;;;5056497;28;20047;-49
2022/02/05 09:07:49;;;;;;;0.60;0.45;;;8.40;98.30;;;;;;5066261;28;20037;-49
2022/02/05 09:10:30;;;;;;;1.33;1.10;;;8.50;98.20;;;;;;5060918;28;20032;-49
2022/02/05 09:13:35;;;;;;;2.78;0.93;;;8.50;97.90;;;;;;5060465;28;20374;-49
2022/02/05 09:15:58;;;;;;;1.27;0.90;;;8.60;97.20;;;;;;5062845;28;20036;-49
2022/02/05 09:18:24;;;;;;;11.65;1.17;;;8.60;95.90;;;;;;5060504;28;20024;-50
2022/02/05 09:20:49;;;;;;;2.72;1.35;;;8.60;94.70;;;;;;5061876;28;20807;-49
2022/02/05 09:23:15;;;;;;;1.20;0.88;;;8.60;94.40;;;;;;5062268;28;20111;-49
2022/02/05 09:25:42;;;;;;;0.57;0.57;;;8.50;93.10;;;;;;5060607;28;20025;-49
2022/02/05 09:28:09;;;;;;;0.40;0.40;;;8.60;93.10;;;;;;5061811;28;20020;-49
2022/02/05 09:31:12;;;;;;;0.77;0.68;;;8.60;92.30;;;;;;5055456;28;20029;-49
2022/02/05 09:33:37;;;;;;;1.35;0.52;;;8.60;92.30;;;;;;5061397;28;20032;-49
2022/02/05 09:36:03;;;;;;;2.63;1.52;;;8.60;92.20;;;;;;5060087;28;20450;-49
2022/02/05 09:38:29;;;;;;;1.08;0.98;;;8.60;91.80;;;;;;5061501;28;20560;-49
2022/02/05 09:40:56;;;;;;;1.08;0.85;;;8.60;91.50;;;;;;5062703;28;20107;-49
2022/02/05 09:43:27;;;;;;;2.13;1.52;;;8.60;91.40;;;;;;5057820;28;20454;-50
2022/02/05 09:45:56;;;;;;;0.38;0.38;;;8.60;90.80;;;;;;5058443;28;20043;-49
2022/02/05 09:48:23;;;;;;;0.60;0.60;;;8.60;90.50;;;;;;5058904;28;20029;-49
2022/02/05 09:50:49;;;;;;;0.40;0.40;;;8.50;90.20;;;;;;5060966;28;20959;-49
2022/02/05 09:53:17;;;;;;;0.22;0.22;;;8.50;89.50;;;;;;5058637;28;20025;-49
2022/02/05 09:55:44;;;;;;;1.35;0.88;;;8.50;87.90;;;;;;5060618;28;20057;-49
2022/02/05 09:58:10;;;;;;;1.83;0.93;;;8.50;88.50;;;;;;5059875;28;20422;-49
2022/02/05 10:00:36;;;;;;;3.53;0.60;;;8.50;88.30;;;;;;5057679;28;20033;-49
2022/02/05 10:03:03;;;;;;;4.13;1.05;;;8.40;87.60;;;;;;5060203;28;20029;-49
2022/02/05 10:05:33;;;;;;;5.25;0.68;;;8.50;88.10;;;;;;5058226;28;20469;-49
2022/02/05 10:08:09;;;;;;;0.40;0.40;;;8.50;87.70;;;;;;5061092;28;20320;-49
2022/02/05 10:10:43;;;;;;;0.63;0.63;;;8.50;88.20;;;;;;5059807;28;20060;-49
2022/02/05 10:13:09;;;;;;;0.57;0.57;;;8.50;87.20;;;;;;5058881;28;20455;-49
2022/02/05 10:15:36;;;;;;;0.60;0.50;;;8.50;87.90;;;;;;5056848;28;20032;-49
2022/02/05 10:18:03;;;;;;;11.27;0.75;;;8.50;88.00;;;;;;5061248;28;20078;-49
2022/02/05 10:20:29;;;;;;;3.28;1.55;;;8.60;87.90;;;;;;5059258;28;20032;-49
2022/02/05 10:22:56;;;;;;;4.50;1.80;;;8.60;88.90;;;;;;5059543;28;20048;-50
2022/02/05 10:25:24;;;;;;;2.90;1.08;;;8.60;88.60;;;;;;5061260;28;20044;-49
2022/02/05 10:27:51;;;;;;;7.68;1.75;;;8.60;89.50;;;;;;5059533;28;20029;-49
2022/02/05 10:30:22;;;;;;;1.08;0.90;;;8.60;89.10;;;;;;5055975;28;20489;-49
2022/02/05 10:32:58;;;;;;;2.65;1.10;;;8.60;88.70;;;;;;5059389;28;20021;-49
2022/02/05 10:35:38;;;;;;;0.47;0.47;;;8.70;90.00;;;;;;5058513;28;20112;-50
2022/02/05 10:41:01;;;;;;;0.30;0.30;;;8.70;87.70;;;;;;5059828;28;20350;-51
2022/02/05 10:43:35;;;;;;;1.92;0.68;;;8.60;87.50;;;;;;5060654;28;20021;-50
2022/02/05 10:46:04;;;;;;;0.30;0.30;;;8.70;89.10;;;;;;5055642;28;20079;-50
2022/02/05 10:48:31;;;;;;;2.75;1.52;;;8.70;86.90;;;;;;5059102;28;20435;-49
2022/02/05 10:51:00;;;;;;;2.75;1.33;;;8.70;86.70;;;;;;5060882;28;20370;-50
2022/02/05 10:53:34;;;;;;;0.28;0.28;;;8.70;86.30;;;;;;5061280;28;20101;-50
2022/02/05 10:56:21;;;;;;;6.78;1.02;;;8.70;85.50;;;;;;5060125;28;20044;-49
2022/02/05 11:07:07;;;;;;;1.08;0.95;;;8.70;89.00;;;;;;5061488;28;20090;-49
2022/02/05 11:09:33;;;;;;;11.02;2.10;;;8.70;87.20;;;;;;5059949;28;20481;-50
2022/02/05 11:20:15;;;;;;;1.17;0.70;;;8.70;90.40;;;;;;5061665;28;20033;-50
2022/02/05 11:22:43;;;;;;;5.60;1.30;;;8.80;89.40;;;;;;5058443;28;20036;-49
2022/02/05 11:25:12;;;;;;;4.18;1.05;;;8.80;89.20;;;;;;5059353;28;20404;-50
2022/02/05 11:27:44;;;;;;;4.78;1.27;;;8.80;88.90;;;;;;5059143;28;20053;-50
2022/02/05 11:30:25;;;;;;;0.32;0.32;;;8.80;90.70;;;;;;5054310;28;20044;-49
2022/02/05 11:32:51;;;;;;;0.60;0.60;;;8.80;91.40;;;;;;5061265;28;20599;-49
2022/02/05 11:35:29;;;;;;;5.00;1.52;;;8.80;90.10;;;;;;5066709;28;20374;-49
2022/02/05 11:38:00;;;;;;;0.80;0.80;;;8.80;90.60;;;;;;5056581;28;20490;-49
2022/02/05 11:40:47;;;;;;;0.43;0.43;;;8.80;90.90;;;;;;5062317;28;20024;-49
2022/02/05 11:43:31;;;;;;;6.85;1.20;;;8.80;91.30;;;;;;5054098;28;20025;-51
2022/02/05 11:46:06;;;;;;;3.50;1.05;;;8.80;91.60;;;;;;5054790;28;20078;-47
2022/02/05 11:48:43;;;;;;;2.35;1.02;;;8.90;90.20;;;;;;5059112;28;20025;-46
2022/02/05 11:51:13;;;;;;;3.45;1.35;;;9.10;87.20;;;;;;5063780;28;20021;-47
2022/02/05 11:53:57;;;;;;;3.58;1.45;;;9.20;85.50;;;;;;5056343;28;20466;-46
2022/02/05 11:59:19;;;;;;;0.40;0.40;;;9.20;85.10;;;;;;5061980;28;20316;-47
2022/02/05 12:01:45;;;;;;;;;;;9.20;85.50;;;;;;5057836;28;20402;-46
2022/02/05 12:04:18;;;;;;;0.40;0.40;;;9.20;85.50;;;;;;5062554;28;19912;-47
2022/02/05 12:06:47;;;;;;;0.85;0.70;;;9.20;83.80;;;;;;5067796;28;20493;-46
2022/02/05 12:09:32;;;;;;;3.73;1.20;;;9.20;82.40;;;;;;5063470;28;20017;-46
2022/02/05 12:12:28;;;;;;;3.42;0.93;;;9.20;83.20;;;;;;5071016;28;20270;-47
2022/02/05 12:15:15;;;;;;;1.58;0.85;;;9.10;84.20;;;;;;5060781;28;20036;-47
2022/02/05 12:23:31;;;;;;;2.40;1.00;;;9.20;84.20;;;;;;5063957;28;20025;-47
2022/02/05 12:25:59;;;;;;;0.55;0.55;;;9.20;83.50;;;;;;5066674;28;20343;-47
2022/02/05 12:28:31;;;;;;;0.90;0.57;;;9.20;82.80;;;;;;5063281;28;20100;-48
2022/02/05 12:30:59;;;;;;;1.33;0.80;;;9.10;83.40;;;;;;5056787;28;20031;-47
2022/02/05 12:33:43;;;;;;;0.55;0.55;;;9.10;81.70;;;;;;5061377;28;20116;-47
2022/02/05 12:36:09;;;;;;;1.10;0.95;;;9.10;83.70;;;;;;5066921;28;20032;-47
2022/02/05 12:38:43;;;;;;;1.65;1.08;;;9.20;85.40;;;;;;5062877;28;20115;-47
2022/02/05 12:41:12;;;;;;;1.08;0.73;;;9.20;83.40;;;;;;5064093;28;20021;-47
2022/02/05 12:44:01;;;;;;;0.77;0.57;;;9.20;84.20;;;;;;5069770;28;20338;-47
2022/02/05 12:46:51;;;;;;;3.22;0.68;;;9.30;82.20;;;;;;5062297;28;20021;-47
2022/02/05 12:49:23;;;;;;;0.55;0.55;;;9.20;83.80;;;;;;5068767;28;20037;-47
2022/02/05 12:51:50;;;;;;;1.45;1.23;;;9.20;83.40;;;;;;5061760;28;20361;-47
2022/02/05 12:54:20;;;;;;;0.73;0.73;;;9.20;81.00;;;;;;5067376;28;20056;-47
2022/02/05 12:56:46;;;;;;;0.30;0.30;;;9.20;82.90;;;;;;5063271;28;20112;-48
2022/02/05 12:59:16;;;;;;;0.68;0.68;;;9.20;84.50;;;;;;5067293;28;20286;-47
2022/02/05 13:02:03;;;;;;;10.60;0.70;;;9.30;81.00;;;;;;5055924;28;20025;-47
2022/02/05 13:04:37;;;;;;;3.50;1.65;;;9.20;81.80;;;;;;5064745;28;20045;-47
2022/02/05 13:07:10;;;;;;;1.00;0.60;;;9.20;82.00;;;;;;5063815;28;20427;-47
2022/02/05 13:09:44;;;;;;;0.30;0.30;;;9.20;80.40;;;;;;5059333;28;20047;-47
2022/02/05 13:12:12;;;;;;;0.45;0.45;;;9.30;81.90;;;;;;5061183;28;20323;-48
2022/02/05 13:14:40;;;;;;;0.90;0.50;;;9.20;79.40;;;;;;5057402;28;20036;-48
2022/02/05 13:17:11;;;;;;;0.80;0.80;;;9.20;79.60;;;;;;5056876;28;20071;-47
2022/02/05 13:20:00;;;;;;;0.30;0.30;;;9.10;80.70;;;;;;5060908;28;20082;-48
2022/02/05 13:39:33;;;;;;;3.30;1.08;;;9.00;80.80;;;;;;5060634;28;20110;-48
2022/02/05 13:41:36;;;;;;;3.53;0.75;;;8.90;79.00;;;;;;5065704;28;20082;-47
2022/02/05 13:44:02;;;;;;;0.77;0.77;;;8.90;81.40;;;;;;5061411;28;20087;-48
2022/02/05 13:46:28;;;;;;;4.53;0.80;;;8.90;80.60;;;;;;5060490;28;20044;-48
2022/02/05 13:48:53;;;;;;;1.25;0.90;;;8.90;80.00;;;;;;5059486;28;20025;-48
2022/02/05 13:51:19;;;;;;;2.92;0.73;;;8.80;80.60;;;;;;5061547;28;20158;-48
2022/02/05 13:53:57;;;;;;;3.22;1.02;;;8.80;80.90;;;;;;5056402;28;20154;-47
2022/02/05 13:56:23;;;;;;;1.60;1.08;;;8.90;80.00;;;;;;5061136;28;20025;-48
2022/02/05 13:58:49;;;;;;;5.50;1.20;;;8.80;81.00;;;;;;5067243;28;20017;-48
2022/02/05 14:01:32;;;;;;;1.27;0.57;;;8.80;82.50;;;;;;5063607;28;20081;-48
2022/02/05 14:04:12;;;;;;;2.55;0.80;;;8.80;80.10;;;;;;5056597;28;20043;-48
2022/02/05 14:06:50;;;;;;;1.85;0.80;;;8.80;79.20;;;;;;5071470;28;20111;-48
2022/02/05 14:09:42;;;;;;;0.65;0.65;;;8.80;79.50;;;;;;5071145;28;20024;-48
2022/02/05 14:12:19;;;;;;;1.60;0.90;;;8.80;80.30;;;;;;5069983;28;20029;-48
2022/02/05 14:15:04;;;;;;;2.03;0.95;;;8.80;79.70;;;;;;5062380;28;20067;-48
2022/02/05 14:17:30;;;;;;;4.03;1.40;;;8.80;78.50;;;;;;5060707;28;20095;-48
2022/02/05 14:20:06;;;;;;;2.72;1.23;;;8.80;76.40;;;;;;5062838;28;20444;-48
2022/02/05 14:22:35;;;;;;;4.85;2.25;;;8.70;76.30;;;;;;5070354;28;20024;-48
2022/02/05 14:25:18;;;;;;;0.98;0.70;;;8.70;77.50;;;;;;5058544;28;20040;-48
2022/02/05 14:28:11;;;;;;;0.70;0.70;;;8.70;77.50;;;;;;5050929;28;20028;-48
2022/02/05 14:30:40;;;;;;;4.03;1.30;;;8.70;77.10;;;;;;5059914;28;20028;-48
2022/02/05 14:33:08;;;;;;;1.33;0.70;;;8.70;77.70;;;;;;5050116;28;20029;-48
2022/02/05 14:36:34;;;;;;;6.00;0.68;;;8.70;78.10;;;;;;5054641;28;20031;-49
2022/02/05 14:41:04;;;;;;;7.32;0.98;;;8.70;76.60;;;;;;5061792;28;20362;-48
2022/02/05 14:43:29;;;;;;;2.97;1.02;;;8.60;76.70;;;;;;5049872;28;20021;-48
2022/02/05 14:45:55;;;;;;;1.15;1.00;;;8.60;76.00;;;;;;5064087;28;20074;-48
2022/02/05 14:48:21;;;;;;;2.05;0.68;;;8.60;77.00;;;;;;5050892;28;20112;-48
2022/02/05 14:50:46;;;;;;;0.70;0.60;;;8.60;76.70;;;;;;5050457;28;20477;-48
2022/02/05 14:53:12;;;;;;;1.42;1.23;;;8.60;76.40;;;;;;5050255;28;20101;-48
2022/02/05 14:55:38;;;;;;;0.93;0.75;;;8.60;76.70;;;;;;5050531;28;20033;-48
2022/02/05 14:58:03;;;;;;;0.68;0.68;;;8.60;76.40;;;;;;5065817;28;20028;-48
2022/02/05 15:00:29;;;;;;;1.60;0.60;;;8.60;76.20;;;;;;5070493;28;20350;-48
2022/02/05 15:02:55;;;;;;;2.67;1.05;;;8.60;76.00;;;;;;5061997;28;20024;-49
2022/02/05 15:05:22;;;;;;;0.40;0.40;;;8.60;76.10;;;;;;5069757;28;20074;-49
2022/02/05 15:07:47;;;;;;;1.38;1.00;;;8.60;76.80;;;;;;5070263;28;20469;-49
2022/02/05 15:10:16;;;;;;;3.00;1.33;;;8.60;77.20;;;;;;5070305;28;20056;-48
2022/02/05 15:12:42;;;;;;;2.75;0.93;;;8.60;76.40;;;;;;5068860;28;20074;-49
2022/02/05 15:15:19;;;;;;;0.95;0.77;;;8.60;78.30;;;;;;5069661;28;20024;-48
2022/02/05 15:17:45;;;;;;;1.23;0.95;;;8.60;78.00;;;;;;5055642;28;20331;-49
2022/02/05 15:20:13;;;;;;;1.55;0.68;;;8.60;79.10;;;;;;5049702;28;20033;-49
2022/02/05 15:22:39;;;;;;;0.93;0.60;;;8.60;78.90;;;;;;5049981;28;20032;-48
2022/02/05 15:25:05;;;;;;;3.17;1.05;;;8.60;78.20;;;;;;5050376;28;20033;-48
2022/02/05 15:27:31;;;;;;;1.95;1.50;;;8.60;78.10;;;;;;5051996;28;20040;-49
2022/02/05 15:29:57;;;;;;;4.75;0.85;;;8.60;76.90;;;;;;5057584;28;20017;-48
2022/02/05 15:32:22;;;;;;;6.55;0.90;;;8.60;75.10;;;;;;5059854;28;20055;-47
2022/02/05 15:34:48;;;;;;;0.50;0.50;;;8.60;75.60;;;;;;5063333;28;20020;-48
2022/02/05 15:37:21;;;;;;;1.50;0.77;;;8.60;75.40;;;;;;5064935;28;20028;-49
2022/02/05 15:40:12;;;;;;;0.55;0.55;;;8.60;78.70;;;;;;5063937;28;20029;-48
2022/02/05 15:45:22;;;;;;;7.10;0.60;;;8.70;79.20;;;;;;5061749;28;20101;-48
2022/02/05 15:47:47;;;;;;;1.20;0.70;;;8.70;79.10;;;;;;5058527;28;20622;-48
2022/02/05 15:50:13;;;;;;;6.55;0.65;;;8.70;79.20;;;;;;5060705;28;20327;-49
2022/02/05 15:52:39;;;;;;;5.40;1.15;;;8.80;79.00;;;;;;5064487;28;20025;-49
2022/02/05 15:55:06;;;;;;;4.38;0.57;;;8.80;79.50;;;;;;5064440;28;20017;-48
2022/02/05 16:00:23;;;;;;;2.60;0.63;;;8.80;80.30;;;;;;5068117;28;20043;-49
2022/02/05 16:02:48;;;;;;;3.15;0.70;;;8.80;80.30;;;;;;5063911;28;20502;-48
2022/02/05 16:05:14;;;;;;;2.97;1.48;;;8.80;81.00;;;;;;5068564;28;20066;-49
2022/02/05 16:07:40;;;;;;;2.50;1.00;;;8.90;81.20;;;;;;5072834;28;20025;-48
2022/02/05 16:10:06;;;;;;;6.38;1.20;;;8.80;81.40;;;;;;5069763;28;20473;-49
2022/02/05 16:12:31;;;;;;;3.42;1.33;;;8.90;81.60;;;;;;5061506;28;20028;-49
2022/02/05 16:14:57;;;;;;;4.03;1.15;;;8.90;81.80;;;;;;5064778;28;20028;-48